createdAt,value
2019-01-03T00:01:23.925Z,2.00
2019-01-03T00:06:51.527Z,2.00
2019-01-03T00:12:38.596Z,1.90
2019-01-03T00:18:09.494Z,1.90
2019-01-03T00:23:32.015Z,1.90
2019-01-03T00:28:54.552Z,1.80
2019-01-03T00:34:17.029Z,1.80
2019-01-03T00:39:52.972Z,1.80
2019-01-03T00:45:26.138Z,1.80
2019-01-03T00:50:50.320Z,1.80
2019-01-03T00:56:32.568Z,1.80
2019-01-03T01:01:57.177Z,1.70
2019-01-03T01:07:33.650Z,1.70
2019-01-03T01:13:12.861Z,1.60
2019-01-03T01:18:35.152Z,1.60
2019-01-03T01:24:03.800Z,1.50
2019-01-03T01:29:46.016Z,1.50
2019-01-03T01:35:08.237Z,1.50
2019-01-03T01:40:31.630Z,1.40
2019-01-03T01:45:50.393Z,1.40
2019-01-03T01:51:29.766Z,1.30
2019-01-03T01:56:52.142Z,1.40
2019-01-03T02:02:20.201Z,1.40
2019-01-03T02:07:36.876Z,1.40
2019-01-03T02:13:00.701Z,1.40
2019-01-03T02:18:36.670Z,1.40
2019-01-03T02:23:54.420Z,1.40
2019-01-03T02:29:16.314Z,1.40
2019-01-03T02:34:49.594Z,1.40
2019-01-03T02:40:09.721Z,1.50
2019-01-03T02:45:36.670Z,1.50
2019-01-03T02:51:15.618Z,1.50
2019-01-03T02:56:52.182Z,1.50
2019-01-03T03:02:17.400Z,1.50
2019-01-03T03:07:40.277Z,1.50
2019-01-03T03:13:04.183Z,1.50
2019-01-03T03:18:26.225Z,1.60
2019-01-03T03:23:48.772Z,1.60
2019-01-03T03:29:17.107Z,1.70
2019-01-03T03:34:39.553Z,1.70
2019-01-03T03:40:16.807Z,1.80
2019-01-03T03:45:33.712Z,1.80
2019-01-03T03:50:52.365Z,1.90
2019-01-03T03:56:22.375Z,2.00
2019-01-03T04:02:01.353Z,2.00
2019-01-03T04:07:23.840Z,2.10
2019-01-03T04:12:46.394Z,2.10
2019-01-03T04:18:07.461Z,2.20
2019-01-03T04:23:36.645Z,2.20
2019-01-03T04:29:03.733Z,2.20
2019-01-03T04:34:25.079Z,2.20
2019-01-03T04:40:01.217Z,2.20
2019-01-03T04:45:38.740Z,2.20
2019-01-03T04:51:02.568Z,2.20
2019-01-03T04:56:29.556Z,2.20
2019-01-03T05:02:25.043Z,2.20
2019-01-03T05:07:46.841Z,2.20
2019-01-03T05:13:09.621Z,2.10
2019-01-03T05:18:42.380Z,2.10
2019-01-03T05:24:13.138Z,2.10
2019-01-03T05:29:30.229Z,2.10
2019-01-03T05:34:52.693Z,2.10
2019-01-03T05:40:18.226Z,2.10
2019-01-03T05:45:42.286Z,2.10
2019-01-03T05:51:09.879Z,2.10
2019-01-03T05:56:40.329Z,2.10
2019-01-03T06:02:02.901Z,2.20
2019-01-03T06:07:25.952Z,2.20
2019-01-03T06:12:48.333Z,2.20
2019-01-03T06:18:11.653Z,2.20
2019-01-03T06:23:34.647Z,2.20
2019-01-03T06:28:57.303Z,2.20
2019-01-03T06:34:19.924Z,2.20
2019-01-03T06:39:44.022Z,2.20
2019-01-03T06:45:17.365Z,2.20
2019-01-03T06:50:37.112Z,2.10
2019-01-03T06:55:59.604Z,2.10
2019-01-03T07:01:31.824Z,2.10
2019-01-03T07:06:58.646Z,2.10
2019-01-03T07:12:14.158Z,2.00
2019-01-03T07:17:31.325Z,2.00
2019-01-03T07:22:52.312Z,2.00
2019-01-03T07:28:25.056Z,1.90
2019-01-03T07:33:47.750Z,1.90
2019-01-03T07:39:14.744Z,1.90
2019-01-03T07:44:39.844Z,1.90
2019-01-03T07:50:02.594Z,1.90
2019-01-03T07:55:21.036Z,1.90
2019-01-03T08:01:03.305Z,2.00
2019-01-03T08:06:33.321Z,2.00
2019-01-03T08:11:52.581Z,2.00
2019-01-03T08:17:15.331Z,2.10
2019-01-03T08:22:33.388Z,2.10
2019-01-03T08:28:15.961Z,2.10
2019-01-03T08:33:38.818Z,2.20
2019-01-03T08:39:01.461Z,2.30
2019-01-03T08:44:25.706Z,2.40
2019-01-03T08:50:01.896Z,2.40
2019-01-03T08:55:30.125Z,2.50
2019-01-03T09:01:06.589Z,2.60
2019-01-03T09:06:29.570Z,2.70
2019-01-03T09:11:49.142Z,2.80
2019-01-03T09:17:25.021Z,2.80
2019-01-03T09:22:41.169Z,2.90
2019-01-03T09:28:10.866Z,3.00
2019-01-03T09:33:42.924Z,3.10
2019-01-03T09:39:15.812Z,3.20
2019-01-03T09:44:39.012Z,3.30
2019-01-03T09:49:43.946Z,3.40
2019-01-03T09:54:49.168Z,3.50
2019-01-03T09:59:54.165Z,3.60
2019-01-03T10:04:59.085Z,3.70
2019-01-03T10:10:04.724Z,3.80
2019-01-03T10:15:09.672Z,3.90
2019-01-03T10:20:14.680Z,4.00
2019-01-03T10:25:19.498Z,4.10
2019-01-03T10:30:24.502Z,4.20
2019-01-03T10:35:29.592Z,4.30
2019-01-03T10:40:34.477Z,4.40
2019-01-03T10:45:39.711Z,4.50
2019-01-03T10:50:44.566Z,4.50
2019-01-03T10:55:49.536Z,4.70
2019-01-03T11:00:56.162Z,4.70
2019-01-03T11:06:05.222Z,4.80
2019-01-03T11:11:10.308Z,4.90
2019-01-03T11:16:18.793Z,5.00
2019-01-03T11:21:28.298Z,5.00
2019-01-03T11:26:33.397Z,5.00
2019-01-03T11:31:38.453Z,5.00
2019-01-03T11:36:44.724Z,5.10
2019-01-03T11:41:49.469Z,5.20
2019-01-03T11:46:57.893Z,5.20
2019-01-03T11:52:04.247Z,5.30
2019-01-03T11:57:09.156Z,5.40
2019-01-03T12:02:14.598Z,5.50
2019-01-03T12:07:19.853Z,5.50
2019-01-03T12:12:24.860Z,5.60
2019-01-03T12:17:29.861Z,5.70
2019-01-03T12:22:37.074Z,5.80
2019-01-03T12:27:41.942Z,5.90
2019-01-03T12:32:47.077Z,6.00
2019-01-03T12:37:52.671Z,6.10
2019-01-03T12:42:57.696Z,6.10
2019-01-03T12:48:03.304Z,6.20
2019-01-03T12:53:18.347Z,6.30
2019-01-03T12:58:28.306Z,6.40
2019-01-03T13:03:33.385Z,6.40
2019-01-03T13:08:38.764Z,6.40
2019-01-03T13:13:43.679Z,6.40
2019-01-03T13:18:53.339Z,6.50
2019-01-03T13:23:58.415Z,6.50
2019-01-03T13:29:05.181Z,6.50
2019-01-03T13:34:10.823Z,6.50
2019-01-03T13:39:15.640Z,6.40
2019-01-03T13:44:20.763Z,6.40
2019-01-03T13:49:25.750Z,6.40
2019-01-03T13:54:30.522Z,6.40
2019-01-03T13:59:35.249Z,6.30
2019-01-03T14:04:40.079Z,6.30
2019-01-03T14:09:44.872Z,6.20
2019-01-03T14:14:49.688Z,6.20
2019-01-03T14:19:54.528Z,6.20
2019-01-03T14:24:59.694Z,6.20
2019-01-03T14:30:08.511Z,6.20
2019-01-03T14:35:13.921Z,6.30
2019-01-03T14:40:18.949Z,6.30
2019-01-03T14:45:24.018Z,6.30
2019-01-03T14:50:29.079Z,6.30
2019-01-03T14:55:37.437Z,6.30
2019-01-03T15:01:12.137Z,6.30
2019-01-03T15:06:18.757Z,6.30
2019-01-03T15:11:25.918Z,6.20
2019-01-03T15:16:31.612Z,6.20
2019-01-03T15:21:36.946Z,6.20
2019-01-03T15:26:41.956Z,6.10
2019-01-03T15:31:46.722Z,6.10
2019-01-03T15:36:51.553Z,6.10
2019-01-03T15:41:58.186Z,6.10
2019-01-03T15:47:03.305Z,6.10
2019-01-03T15:52:09.475Z,6.10
2019-01-03T15:57:14.220Z,6.10
2019-01-03T16:02:23.646Z,6.10
2019-01-03T16:07:28.919Z,6.10
2019-01-03T16:12:35.282Z,6.10
2019-01-03T16:17:42.236Z,6.10
2019-01-03T16:22:52.273Z,6.00
2019-01-03T16:27:57.611Z,6.00
2019-01-03T16:33:02.623Z,6.00
2019-01-03T16:38:07.409Z,6.00
2019-01-03T16:43:12.551Z,6.00
2019-01-03T16:48:17.424Z,6.00
2019-01-03T16:53:22.397Z,6.00
2019-01-03T16:58:27.526Z,6.00
2019-01-03T17:03:32.901Z,5.90
2019-01-03T17:08:37.654Z,5.90
2019-01-03T17:13:42.914Z,5.90
2019-01-03T17:18:47.627Z,5.80
2019-01-03T17:23:52.712Z,5.80
2019-01-03T17:28:57.755Z,5.80
2019-01-03T17:34:02.588Z,5.80
2019-01-03T17:39:07.426Z,5.80
2019-01-03T17:44:12.344Z,5.80
2019-01-03T17:49:22.847Z,5.80
2019-01-03T17:54:34.003Z,5.80
2019-01-03T17:59:40.416Z,5.90
2019-01-03T18:04:45.331Z,5.90
2019-01-03T18:09:53.194Z,5.90
2019-01-03T18:14:58.959Z,6.00
2019-01-03T18:20:06.148Z,5.90
2019-01-03T18:25:11.191Z,6.00
2019-01-03T18:30:19.066Z,6.00
2019-01-03T18:35:24.012Z,6.00
2019-01-03T18:40:30.756Z,6.10
2019-01-03T18:45:36.119Z,6.10
2019-01-03T18:50:43.542Z,6.10
2019-01-03T18:55:48.645Z,6.10
2019-01-03T19:00:56.111Z,6.00
2019-01-03T19:06:07.562Z,6.00
2019-01-03T19:11:12.404Z,6.00
2019-01-03T19:16:21.161Z,6.00
2019-01-03T19:21:26.239Z,6.10
2019-01-03T19:26:31.166Z,6.10
2019-01-03T19:31:39.017Z,6.10
2019-01-03T19:36:44.129Z,6.00
2019-01-03T19:41:48.934Z,6.00
2019-01-03T19:46:53.887Z,5.90
2019-01-03T19:51:58.819Z,5.90
2019-01-03T19:57:03.952Z,5.90
2019-01-03T20:02:09.492Z,5.90
2019-01-03T20:07:14.766Z,5.80
2019-01-03T20:12:22.729Z,5.70
2019-01-03T20:17:34.054Z,5.70
2019-01-03T20:22:41.884Z,5.60
2019-01-03T20:27:47.756Z,5.40
2019-01-03T20:32:52.758Z,5.30
2019-01-03T20:37:58.585Z,5.10
2019-01-03T20:43:03.735Z,5.00
2019-01-03T20:48:09.238Z,4.90
2019-01-03T20:53:19.074Z,4.80
2019-01-03T20:58:24.282Z,4.70
2019-01-03T21:03:29.283Z,4.70
2019-01-03T21:08:35.560Z,4.60
2019-01-03T21:13:42.901Z,4.50
2019-01-03T21:18:48.026Z,4.40
2019-01-03T21:23:53.165Z,4.40
2019-01-03T21:29:01.623Z,4.40
2019-01-03T21:34:09.993Z,4.30
2019-01-03T21:39:15.710Z,4.30
2019-01-03T21:44:23.465Z,4.20
2019-01-03T21:49:28.353Z,4.20
2019-01-03T21:54:33.319Z,4.10
2019-01-03T21:59:44.463Z,4.10
2019-01-03T22:04:51.792Z,4.00
2019-01-03T22:10:02.535Z,4.00
2019-01-03T22:15:09.713Z,3.90
2019-01-03T22:20:14.865Z,3.90
2019-01-03T22:25:20.547Z,3.80
2019-01-03T22:30:26.143Z,3.80
2019-01-03T22:35:31.152Z,3.80
2019-01-03T22:40:36.331Z,3.70
2019-01-03T22:45:42.481Z,3.70
2019-01-03T22:50:49.513Z,3.60
2019-01-03T22:55:54.571Z,3.60
2019-01-03T23:00:59.804Z,3.50
2019-01-03T23:06:13.862Z,3.40
2019-01-03T23:11:19.965Z,3.40
2019-01-03T23:16:25.114Z,3.30
2019-01-03T23:21:30.113Z,3.30
2019-01-03T23:26:35.586Z,3.30
2019-01-03T23:31:40.536Z,3.20
2019-01-03T23:36:46.680Z,3.20
2019-01-03T23:41:51.741Z,3.20
2019-01-03T23:46:57.895Z,3.10
2019-01-03T23:52:03.164Z,3.10
2019-01-03T23:57:16.030Z,3.10
